sensor_id;sensor_type;location;lat;lon;timestamp;temperature;humidity
9209;DHT22;4639;48.862;9.188;2023-07-31T00:01:21;17.90;99.90
9209;DHT22;4639;48.862;9.188;2023-07-31T00:03:46;17.90;99.90
9209;DHT22;4639;48.862;9.188;2023-07-31T00:06:12;17.80;99.90
9209;DHT22;4639;48.862;9.188;2023-07-31T00:08:38;17.80;99.90
9209;DHT22;4639;48.862;9.188;2023-07-31T00:11:03;17.80;99.90
9209;DHT22;4639;48.862;9.188;2023-07-31T00:13:29;17.70;99.90
9209;DHT22;4639;48.862;9.188;2023-07-31T00:15:54;17.70;99.90
9209;DHT22;4639;48.862;9.188;2023-07-31T00:18:20;17.60;99.90
9209;DHT22;4639;48.862;9.188;2023-07-31T00:20:46;17.50;99.90
9209;DHT22;4639;48.862;9.188;2023-07-31T00:23:11;17.40;99.90
9209;DHT22;4639;48.862;9.188;2023-07-31T00:25:37;17.40;99.90
9209;DHT22;4639;48.862;9.188;2023-07-31T00:28:02;17.40;99.90
9209;DHT22;4639;48.862;9.188;2023-07-31T00:30:28;17.30;99.90
9209;DHT22;4639;48.862;9.188;2023-07-31T00:32:54;17.20;99.90
9209;DHT22;4639;48.862;9.188;2023-07-31T00:35:19;17.30;99.90
9209;DHT22;4639;48.862;9.188;2023-07-31T00:37:45;17.30;99.90
9209;DHT22;4639;48.862;9.188;2023-07-31T00:40:10;17.20;99.90
9209;DHT22;4639;48.862;9.188;2023-07-31T00:42:36;17.20;99.90
9209;DHT22;4639;48.862;9.188;2023-07-31T00:45:01;17.20;99.90
9209;DHT22;4639;48.862;9.188;2023-07-31T00:47:27;17.20;99.90
9209;DHT22;4639;48.862;9.188;2023-07-31T00:49:53;17.40;99.90
9209;DHT22;4639;48.862;9.188;2023-07-31T00:52:19;17.30;99.90
9209;DHT22;4639;48.862;9.188;2023-07-31T00:54:45;17.30;99.90
9209;DHT22;4639;48.862;9.188;2023-07-31T00:57:11;17.30;99.90
9209;DHT22;4639;48.862;9.188;2023-07-31T00:59:37;17.20;99.90
9209;DHT22;4639;48.862;9.188;2023-07-31T01:02:03;17.20;99.90
9209;DHT22;4639;48.862;9.188;2023-07-31T01:04:29;17.10;99.90
9209;DHT22;4639;48.862;9.188;2023-07-31T01:10:02;17.10;99.90
9209;DHT22;4639;48.862;9.188;2023-07-31T01:12:30;17.00;99.90
9209;DHT22;4639;48.862;9.188;2023-07-31T01:15:03;17.00;99.90
9209;DHT22;4639;48.862;9.188;2023-07-31T01:17:29;17.00;99.90
9209;DHT22;4639;48.862;9.188;2023-07-31T01:19:56;17.00;99.90
9209;DHT22;4639;48.862;9.188;2023-07-31T01:27:56;16.90;99.90
9209;DHT22;4639;48.862;9.188;2023-07-31T01:30:27;16.80;99.90
9209;DHT22;4639;48.862;9.188;2023-07-31T01:32:54;16.70;99.90
9209;DHT22;4639;48.862;9.188;2023-07-31T01:35:21;16.70;99.90
9209;DHT22;4639;48.862;9.188;2023-07-31T01:37:47;16.70;99.90
9209;DHT22;4639;48.862;9.188;2023-07-31T01:40:13;16.70;99.90
9209;DHT22;4639;48.862;9.188;2023-07-31T01:42:38;16.70;99.90
9209;DHT22;4639;48.862;9.188;2023-07-31T01:45:04;16.60;99.90
9209;DHT22;4639;48.862;9.188;2023-07-31T01:47:30;16.60;99.90
9209;DHT22;4639;48.862;9.188;2023-07-31T01:49:55;16.60;99.90
9209;DHT22;4639;48.862;9.188;2023-07-31T01:52:21;16.50;99.90
9209;DHT22;4639;48.862;9.188;2023-07-31T01:54:46;16.60;99.90
9209;DHT22;4639;48.862;9.188;2023-07-31T01:57:13;16.60;99.90
9209;DHT22;4639;48.862;9.188;2023-07-31T01:59:39;16.60;99.90
9209;DHT22;4639;48.862;9.188;2023-07-31T02:02:04;16.60;99.90
9209;DHT22;4639;48.862;9.188;2023-07-31T02:04:30;16.60;99.90
9209;DHT22;4639;48.862;9.188;2023-07-31T02:06:56;16.70;99.90
9209;DHT22;4639;48.862;9.188;2023-07-31T02:09:21;16.50;99.90
9209;DHT22;4639;48.862;9.188;2023-07-31T02:11:47;16.50;99.90
9209;DHT22;4639;48.862;9.188;2023-07-31T02:14:12;16.50;99.90
9209;DHT22;4639;48.862;9.188;2023-07-31T02:16:38;16.50;99.90
9209;DHT22;4639;48.862;9.188;2023-07-31T02:19:03;16.60;99.90
9209;DHT22;4639;48.862;9.188;2023-07-31T02:21:29;16.60;99.90
9209;DHT22;4639;48.862;9.188;2023-07-31T02:23:54;16.60;99.90
9209;DHT22;4639;48.862;9.188;2023-07-31T02:26:20;16.60;99.90
9209;DHT22;4639;48.862;9.188;2023-07-31T02:28:46;16.60;99.90
9209;DHT22;4639;48.862;9.188;2023-07-31T02:31:11;16.60;99.90
9209;DHT22;4639;48.862;9.188;2023-07-31T02:33:37;16.60;99.90
9209;DHT22;4639;48.862;9.188;2023-07-31T02:36:02;16.50;99.90
9209;DHT22;4639;48.862;9.188;2023-07-31T02:38:28;16.50;99.90
9209;DHT22;4639;48.862;9.188;2023-07-31T02:40:53;16.50;99.90
9209;DHT22;4639;48.862;9.188;2023-07-31T02:43:19;16.40;99.90
9209;DHT22;4639;48.862;9.188;2023-07-31T02:45:44;16.40;99.90
9209;DHT22;4639;48.862;9.188;2023-07-31T02:48:10;16.50;99.90
9209;DHT22;4639;48.862;9.188;2023-07-31T02:50:35;16.40;99.90
9209;DHT22;4639;48.862;9.188;2023-07-31T02:53:01;16.40;99.90
9209;DHT22;4639;48.862;9.188;2023-07-31T02:55:27;16.50;99.90
9209;DHT22;4639;48.862;9.188;2023-07-31T02:57:52;16.40;99.90
9209;DHT22;4639;48.862;9.188;2023-07-31T03:00:18;16.30;99.90
9209;DHT22;4639;48.862;9.188;2023-07-31T03:02:44;16.30;99.90
9209;DHT22;4639;48.862;9.188;2023-07-31T03:05:09;16.30;99.90
9209;DHT22;4639;48.862;9.188;2023-07-31T03:07:35;16.30;99.90
9209;DHT22;4639;48.862;9.188;2023-07-31T03:10:00;16.30;99.90
9209;DHT22;4639;48.862;9.188;2023-07-31T03:12:27;16.30;99.90
9209;DHT22;4639;48.862;9.188;2023-07-31T03:14:52;16.30;99.90
9209;DHT22;4639;48.862;9.188;2023-07-31T03:17:18;16.30;99.90
9209;DHT22;4639;48.862;9.188;2023-07-31T03:19:43;16.30;99.90
9209;DHT22;4639;48.862;9.188;2023-07-31T03:22:09;16.30;99.90
9209;DHT22;4639;48.862;9.188;2023-07-31T03:24:35;16.30;99.90
9209;DHT22;4639;48.862;9.188;2023-07-31T03:27:00;16.20;99.90
9209;DHT22;4639;48.862;9.188;2023-07-31T03:29:26;16.20;99.90
9209;DHT22;4639;48.862;9.188;2023-07-31T03:31:51;16.30;99.90
9209;DHT22;4639;48.862;9.188;2023-07-31T03:34:17;16.30;99.90
9209;DHT22;4639;48.862;9.188;2023-07-31T03:36:42;16.20;99.90
9209;DHT22;4639;48.862;9.188;2023-07-31T03:39:08;16.20;99.90
9209;DHT22;4639;48.862;9.188;2023-07-31T03:41:34;16.20;99.90
9209;DHT22;4639;48.862;9.188;2023-07-31T03:43:59;16.40;99.90
9209;DHT22;4639;48.862;9.188;2023-07-31T03:46:25;16.40;99.90
9209;DHT22;4639;48.862;9.188;2023-07-31T03:48:50;16.40;99.90
9209;DHT22;4639;48.862;9.188;2023-07-31T03:51:16;16.40;99.90
9209;DHT22;4639;48.862;9.188;2023-07-31T03:53:43;16.40;99.90
9209;DHT22;4639;48.862;9.188;2023-07-31T03:56:09;16.30;99.90
9209;DHT22;4639;48.862;9.188;2023-07-31T03:58:34;16.30;99.90
9209;DHT22;4639;48.862;9.188;2023-07-31T04:01:01;16.40;99.90
9209;DHT22;4639;48.862;9.188;2023-07-31T04:03:26;16.30;99.90
9209;DHT22;4639;48.862;9.188;2023-07-31T04:05:54;16.40;99.90
9209;DHT22;4639;48.862;9.188;2023-07-31T04:08:20;16.40;99.90
9209;DHT22;4639;48.862;9.188;2023-07-31T04:10:45;16.40;99.90
9209;DHT22;4639;48.862;9.188;2023-07-31T04:13:11;16.40;99.90
9209;DHT22;4639;48.862;9.188;2023-07-31T04:15:36;16.40;99.90
9209;DHT22;4639;48.862;9.188;2023-07-31T04:18:02;16.40;99.90
9209;DHT22;4639;48.862;9.188;2023-07-31T04:20:27;16.50;99.90
9209;DHT22;4639;48.862;9.188;2023-07-31T04:22:53;16.40;99.90
9209;DHT22;4639;48.862;9.188;2023-07-31T04:25:18;16.60;99.90
9209;DHT22;4639;48.862;9.188;2023-07-31T04:27:44;16.60;99.90
9209;DHT22;4639;48.862;9.188;2023-07-31T04:30:10;16.60;99.90
9209;DHT22;4639;48.862;9.188;2023-07-31T04:32:35;16.60;99.90
9209;DHT22;4639;48.862;9.188;2023-07-31T04:35:01;16.70;99.90
9209;DHT22;4639;48.862;9.188;2023-07-31T04:37:27;16.70;99.90
9209;DHT22;4639;48.862;9.188;2023-07-31T04:39:53;16.80;99.90
9209;DHT22;4639;48.862;9.188;2023-07-31T04:42:18;16.90;99.90
9209;DHT22;4639;48.862;9.188;2023-07-31T04:44:44;16.80;99.90
9209;DHT22;4639;48.862;9.188;2023-07-31T04:47:10;16.80;99.90
9209;DHT22;4639;48.862;9.188;2023-07-31T04:49:35;16.90;99.90
9209;DHT22;4639;48.862;9.188;2023-07-31T04:52:01;16.90;99.90
9209;DHT22;4639;48.862;9.188;2023-07-31T04:54:27;17.00;99.90
9209;DHT22;4639;48.862;9.188;2023-07-31T04:56:52;17.00;99.90
9209;DHT22;4639;48.862;9.188;2023-07-31T04:59:18;17.00;99.90
9209;DHT22;4639;48.862;9.188;2023-07-31T05:01:43;17.10;99.90
9209;DHT22;4639;48.862;9.188;2023-07-31T05:04:13;17.10;99.90
9209;DHT22;4639;48.862;9.188;2023-07-31T05:06:39;17.20;99.90
9209;DHT22;4639;48.862;9.188;2023-07-31T05:09:05;17.20;99.90
9209;DHT22;4639;48.862;9.188;2023-07-31T05:11:30;17.20;99.90
9209;DHT22;4639;48.862;9.188;2023-07-31T05:13:56;17.20;99.90
9209;DHT22;4639;48.862;9.188;2023-07-31T05:16:21;17.30;99.90
9209;DHT22;4639;48.862;9.188;2023-07-31T05:18:47;17.30;99.90
9209;DHT22;4639;48.862;9.188;2023-07-31T05:21:13;17.30;99.90
9209;DHT22;4639;48.862;9.188;2023-07-31T05:23:38;17.40;99.90
9209;DHT22;4639;48.862;9.188;2023-07-31T05:26:05;17.40;99.90
9209;DHT22;4639;48.862;9.188;2023-07-31T05:28:30;17.40;99.90
9209;DHT22;4639;48.862;9.188;2023-07-31T05:31:04;17.40;99.90
9209;DHT22;4639;48.862;9.188;2023-07-31T05:33:29;17.40;99.90
9209;DHT22;4639;48.862;9.188;2023-07-31T05:35:56;17.40;99.90
9209;DHT22;4639;48.862;9.188;2023-07-31T05:38:21;17.50;99.90
9209;DHT22;4639;48.862;9.188;2023-07-31T05:40:47;17.60;99.90
9209;DHT22;4639;48.862;9.188;2023-07-31T05:43:13;17.60;99.90
9209;DHT22;4639;48.862;9.188;2023-07-31T05:45:39;17.70;99.90
9209;DHT22;4639;48.862;9.188;2023-07-31T05:48:05;17.70;99.90
9209;DHT22;4639;48.862;9.188;2023-07-31T05:50:31;17.80;99.90
9209;DHT22;4639;48.862;9.188;2023-07-31T05:52:57;17.90;99.90
9209;DHT22;4639;48.862;9.188;2023-07-31T05:55:22;17.90;99.90
9209;DHT22;4639;48.862;9.188;2023-07-31T05:57:48;17.90;99.90
9209;DHT22;4639;48.862;9.188;2023-07-31T06:00:14;18.00;99.90
9209;DHT22;4639;48.862;9.188;2023-07-31T06:02:40;18.00;99.90
9209;DHT22;4639;48.862;9.188;2023-07-31T06:05:06;18.00;99.90
9209;DHT22;4639;48.862;9.188;2023-07-31T06:07:32;18.10;99.90
9209;DHT22;4639;48.862;9.188;2023-07-31T06:09:57;18.10;99.90
9209;DHT22;4639;48.862;9.188;2023-07-31T06:12:33;18.10;99.90
9209;DHT22;4639;48.862;9.188;2023-07-31T06:14:59;18.20;99.90
9209;DHT22;4639;48.862;9.188;2023-07-31T06:17:25;18.20;99.90
9209;DHT22;4639;48.862;9.188;2023-07-31T06:19:51;18.20;99.90
9209;DHT22;4639;48.862;9.188;2023-07-31T06:22:17;18.20;99.90
9209;DHT22;4639;48.862;9.188;2023-07-31T06:24:43;18.20;99.90
9209;DHT22;4639;48.862;9.188;2023-07-31T06:27:08;18.30;99.90
9209;DHT22;4639;48.862;9.188;2023-07-31T06:29:35;18.40;99.90
9209;DHT22;4639;48.862;9.188;2023-07-31T06:32:00;18.60;99.90
9209;DHT22;4639;48.862;9.188;2023-07-31T06:34:26;18.70;99.90
9209;DHT22;4639;48.862;9.188;2023-07-31T06:36:51;18.80;99.90
9209;DHT22;4639;48.862;9.188;2023-07-31T06:39:17;18.80;99.90
9209;DHT22;4639;48.862;9.188;2023-07-31T06:41:44;18.80;99.90
9209;DHT22;4639;48.862;9.188;2023-07-31T06:44:09;19.00;99.90
9209;DHT22;4639;48.862;9.188;2023-07-31T06:46:35;19.10;99.90
9209;DHT22;4639;48.862;9.188;2023-07-31T06:49:01;19.30;99.90
9209;DHT22;4639;48.862;9.188;2023-07-31T06:51:26;19.20;99.90
9209;DHT22;4639;48.862;9.188;2023-07-31T06:53:52;19.20;99.90
9209;DHT22;4639;48.862;9.188;2023-07-31T06:56:17;19.40;99.90
9209;DHT22;4639;48.862;9.188;2023-07-31T06:58:43;19.30;99.90
9209;DHT22;4639;48.862;9.188;2023-07-31T07:01:08;19.30;99.90
9209;DHT22;4639;48.862;9.188;2023-07-31T07:03:34;19.40;99.90
9209;DHT22;4639;48.862;9.188;2023-07-31T07:06:00;19.30;99.90
9209;DHT22;4639;48.862;9.188;2023-07-31T07:08:25;19.40;99.90
9209;DHT22;4639;48.862;9.188;2023-07-31T07:10:51;19.40;99.90
9209;DHT22;4639;48.862;9.188;2023-07-31T07:13:17;19.50;99.90
9209;DHT22;4639;48.862;9.188;2023-07-31T07:15:47;19.50;99.90
9209;DHT22;4639;48.862;9.188;2023-07-31T07:18:13;19.50;99.90
9209;DHT22;4639;48.862;9.188;2023-07-31T07:20:39;19.70;99.90
9209;DHT22;4639;48.862;9.188;2023-07-31T07:23:05;20.00;99.90
9209;DHT22;4639;48.862;9.188;2023-07-31T07:25:30;19.90;99.90
9209;DHT22;4639;48.862;9.188;2023-07-31T07:27:56;20.10;99.90
9209;DHT22;4639;48.862;9.188;2023-07-31T07:30:22;20.10;99.90
9209;DHT22;4639;48.862;9.188;2023-07-31T07:32:49;20.20;99.90
9209;DHT22;4639;48.862;9.188;2023-07-31T07:35:14;20.20;99.90
9209;DHT22;4639;48.862;9.188;2023-07-31T07:37:40;20.10;99.90
9209;DHT22;4639;48.862;9.188;2023-07-31T07:40:06;20.10;99.90
9209;DHT22;4639;48.862;9.188;2023-07-31T07:42:32;20.00;99.90
9209;DHT22;4639;48.862;9.188;2023-07-31T07:44:58;19.90;99.90
9209;DHT22;4639;48.862;9.188;2023-07-31T07:47:23;19.90;99.90
9209;DHT22;4639;48.862;9.188;2023-07-31T07:49:49;20.00;99.90
9209;DHT22;4639;48.862;9.188;2023-07-31T07:52:14;20.10;99.90
9209;DHT22;4639;48.862;9.188;2023-07-31T07:54:40;20.20;99.90
9209;DHT22;4639;48.862;9.188;2023-07-31T07:57:05;20.30;99.90
9209;DHT22;4639;48.862;9.188;2023-07-31T07:59:31;20.40;99.90
9209;DHT22;4639;48.862;9.188;2023-07-31T08:01:56;20.70;99.90
9209;DHT22;4639;48.862;9.188;2023-07-31T08:04:23;20.80;99.90
9209;DHT22;4639;48.862;9.188;2023-07-31T08:06:48;20.80;99.90
9209;DHT22;4639;48.862;9.188;2023-07-31T08:09:14;20.70;99.90
9209;DHT22;4639;48.862;9.188;2023-07-31T08:11:39;20.60;99.90
9209;DHT22;4639;48.862;9.188;2023-07-31T08:14:05;20.80;99.90
9209;DHT22;4639;48.862;9.188;2023-07-31T08:16:30;21.20;99.90
9209;DHT22;4639;48.862;9.188;2023-07-31T08:18:56;21.10;99.90
9209;DHT22;4639;48.862;9.188;2023-07-31T08:21:23;21.20;99.90
9209;DHT22;4639;48.862;9.188;2023-07-31T08:23:49;21.30;99.90
9209;DHT22;4639;48.862;9.188;2023-07-31T08:26:15;21.20;99.90
9209;DHT22;4639;48.862;9.188;2023-07-31T08:28:41;21.20;99.90
9209;DHT22;4639;48.862;9.188;2023-07-31T08:31:07;21.30;99.90
9209;DHT22;4639;48.862;9.188;2023-07-31T08:33:32;21.30;99.90
9209;DHT22;4639;48.862;9.188;2023-07-31T08:35:58;21.50;99.90
9209;DHT22;4639;48.862;9.188;2023-07-31T08:38:25;21.60;99.90
9209;DHT22;4639;48.862;9.188;2023-07-31T08:40:51;21.70;99.90
9209;DHT22;4639;48.862;9.188;2023-07-31T08:43:16;21.90;99.90
9209;DHT22;4639;48.862;9.188;2023-07-31T08:45:42;21.90;99.90
9209;DHT22;4639;48.862;9.188;2023-07-31T08:48:08;21.90;99.90
9209;DHT22;4639;48.862;9.188;2023-07-31T08:50:35;22.10;99.90
9209;DHT22;4639;48.862;9.188;2023-07-31T08:53:01;22.00;99.90
9209;DHT22;4639;48.862;9.188;2023-07-31T08:55:28;22.10;99.90
9209;DHT22;4639;48.862;9.188;2023-07-31T08:57:55;22.10;99.90
9209;DHT22;4639;48.862;9.188;2023-07-31T09:00:21;22.20;99.90
9209;DHT22;4639;48.862;9.188;2023-07-31T09:02:57;22.30;99.90
9209;DHT22;4639;48.862;9.188;2023-07-31T09:05:26;22.80;99.90
9209;DHT22;4639;48.862;9.188;2023-07-31T09:07:53;23.00;99.90
9209;DHT22;4639;48.862;9.188;2023-07-31T09:10:20;22.90;99.90
9209;DHT22;4639;48.862;9.188;2023-07-31T09:12:45;22.80;99.90
9209;DHT22;4639;48.862;9.188;2023-07-31T09:15:11;22.80;99.90
9209;DHT22;4639;48.862;9.188;2023-07-31T09:17:37;22.90;99.90
9209;DHT22;4639;48.862;9.188;2023-07-31T09:22:42;22.20;99.90
9209;DHT22;4639;48.862;9.188;2023-07-31T09:30:13;22.10;99.90
9209;DHT22;4639;48.862;9.188;2023-07-31T09:32:39;22.10;99.90
9209;DHT22;4639;48.862;9.188;2023-07-31T09:35:29;21.90;99.90
9209;DHT22;4639;48.862;9.188;2023-07-31T09:38:00;21.80;99.90
9209;DHT22;4639;48.862;9.188;2023-07-31T09:40:30;21.80;99.90
9209;DHT22;4639;48.862;9.188;2023-07-31T09:42:57;21.80;99.90
9209;DHT22;4639;48.862;9.188;2023-07-31T09:45:24;21.70;99.90
9209;DHT22;4639;48.862;9.188;2023-07-31T09:47:50;21.80;99.90
9209;DHT22;4639;48.862;9.188;2023-07-31T09:50:16;21.80;99.90
9209;DHT22;4639;48.862;9.188;2023-07-31T09:52:41;22.00;99.90
9209;DHT22;4639;48.862;9.188;2023-07-31T09:55:08;22.10;99.90
9209;DHT22;4639;48.862;9.188;2023-07-31T09:57:34;22.30;99.90
9209;DHT22;4639;48.862;9.188;2023-07-31T10:00:01;22.30;99.90
9209;DHT22;4639;48.862;9.188;2023-07-31T10:02:27;22.60;99.90
9209;DHT22;4639;48.862;9.188;2023-07-31T10:04:57;23.10;99.90
9209;DHT22;4639;48.862;9.188;2023-07-31T10:07:25;23.10;99.90
9209;DHT22;4639;48.862;9.188;2023-07-31T10:09:51;22.80;99.90
9209;DHT22;4639;48.862;9.188;2023-07-31T10:12:19;22.80;99.90
9209;DHT22;4639;48.862;9.188;2023-07-31T10:14:47;23.20;99.90
9209;DHT22;4639;48.862;9.188;2023-07-31T10:17:13;23.30;99.90
9209;DHT22;4639;48.862;9.188;2023-07-31T10:19:40;22.80;99.90
9209;DHT22;4639;48.862;9.188;2023-07-31T10:22:06;23.00;99.90
9209;DHT22;4639;48.862;9.188;2023-07-31T10:24:33;23.00;99.90
9209;DHT22;4639;48.862;9.188;2023-07-31T10:27:00;22.90;99.90
9209;DHT22;4639;48.862;9.188;2023-07-31T10:29:27;22.50;99.90
9209;DHT22;4639;48.862;9.188;2023-07-31T10:31:57;22.60;99.90
9209;DHT22;4639;48.862;9.188;2023-07-31T10:34:24;22.40;99.90
9209;DHT22;4639;48.862;9.188;2023-07-31T10:36:49;22.30;99.90
9209;DHT22;4639;48.862;9.188;2023-07-31T10:39:35;22.30;99.90
9209;DHT22;4639;48.862;9.188;2023-07-31T10:42:12;22.30;99.90
9209;DHT22;4639;48.862;9.188;2023-07-31T10:44:43;22.30;99.90
9209;DHT22;4639;48.862;9.188;2023-07-31T10:47:08;22.40;99.90
9209;DHT22;4639;48.862;9.188;2023-07-31T10:49:34;22.30;99.90
9209;DHT22;4639;48.862;9.188;2023-07-31T10:52:03;22.50;99.90
9209;DHT22;4639;48.862;9.188;2023-07-31T10:54:29;22.70;99.90
9209;DHT22;4639;48.862;9.188;2023-07-31T10:56:54;22.70;99.90
9209;DHT22;4639;48.862;9.188;2023-07-31T10:59:26;22.70;99.90
9209;DHT22;4639;48.862;9.188;2023-07-31T11:01:54;22.70;99.90
9209;DHT22;4639;48.862;9.188;2023-07-31T11:04:24;22.80;99.90
9209;DHT22;4639;48.862;9.188;2023-07-31T11:07:01;22.90;99.90
9209;DHT22;4639;48.862;9.188;2023-07-31T11:09:30;23.00;99.90
9209;DHT22;4639;48.862;9.188;2023-07-31T11:11:58;23.10;99.90
9209;DHT22;4639;48.862;9.188;2023-07-31T11:14:24;23.10;99.90
9209;DHT22;4639;48.862;9.188;2023-07-31T11:16:50;23.50;99.90
9209;DHT22;4639;48.862;9.188;2023-07-31T11:19:24;23.40;99.90
9209;DHT22;4639;48.862;9.188;2023-07-31T11:21:51;23.50;99.90
9209;DHT22;4639;48.862;9.188;2023-07-31T11:24:18;23.30;99.90
9209;DHT22;4639;48.862;9.188;2023-07-31T11:26:53;23.20;99.90
9209;DHT22;4639;48.862;9.188;2023-07-31T11:29:20;23.00;99.90
9209;DHT22;4639;48.862;9.188;2023-07-31T11:31:47;23.00;99.90
9209;DHT22;4639;48.862;9.188;2023-07-31T11:34:13;23.00;99.90
9209;DHT22;4639;48.862;9.188;2023-07-31T11:36:39;23.00;99.90
9209;DHT22;4639;48.862;9.188;2023-07-31T11:39:09;23.00;99.90
9209;DHT22;4639;48.862;9.188;2023-07-31T11:41:34;22.80;99.90
9209;DHT22;4639;48.862;9.188;2023-07-31T11:44:00;22.80;99.90
9209;DHT22;4639;48.862;9.188;2023-07-31T11:46:26;22.90;99.90
9209;DHT22;4639;48.862;9.188;2023-07-31T11:48:52;22.90;99.90
9209;DHT22;4639;48.862;9.188;2023-07-31T11:51:21;23.00;99.90
9209;DHT22;4639;48.862;9.188;2023-07-31T11:53:56;23.00;99.90
9209;DHT22;4639;48.862;9.188;2023-07-31T11:56:23;23.00;99.90
9209;DHT22;4639;48.862;9.188;2023-07-31T11:58:53;23.00;99.90
9209;DHT22;4639;48.862;9.188;2023-07-31T12:01:21;23.00;99.90
9209;DHT22;4639;48.862;9.188;2023-07-31T12:03:47;23.00;99.90
9209;DHT22;4639;48.862;9.188;2023-07-31T12:06:13;23.10;99.90
9209;DHT22;4639;48.862;9.188;2023-07-31T12:08:39;23.10;99.90
9209;DHT22;4639;48.862;9.188;2023-07-31T12:11:05;23.40;99.90
9209;DHT22;4639;48.862;9.188;2023-07-31T12:13:32;23.40;99.90
9209;DHT22;4639;48.862;9.188;2023-07-31T12:16:00;23.40;99.90
9209;DHT22;4639;48.862;9.188;2023-07-31T12:18:30;23.50;99.90
9209;DHT22;4639;48.862;9.188;2023-07-31T12:21:00;23.50;99.90
9209;DHT22;4639;48.862;9.188;2023-07-31T12:23:31;23.40;99.90
9209;DHT22;4639;48.862;9.188;2023-07-31T12:26:09;23.20;99.90
9209;DHT22;4639;48.862;9.188;2023-07-31T12:28:37;23.20;99.90
9209;DHT22;4639;48.862;9.188;2023-07-31T12:31:04;23.30;99.90
9209;DHT22;4639;48.862;9.188;2023-07-31T12:33:35;23.30;99.90
9209;DHT22;4639;48.862;9.188;2023-07-31T12:36:03;23.40;99.90
9209;DHT22;4639;48.862;9.188;2023-07-31T12:38:29;23.60;99.90
9209;DHT22;4639;48.862;9.188;2023-07-31T12:40:55;23.80;99.90
9209;DHT22;4639;48.862;9.188;2023-07-31T12:43:20;23.90;99.90
9209;DHT22;4639;48.862;9.188;2023-07-31T12:45:46;23.80;99.90
9209;DHT22;4639;48.862;9.188;2023-07-31T12:48:13;23.70;99.90
9209;DHT22;4639;48.862;9.188;2023-07-31T12:50:38;23.50;99.90
9209;DHT22;4639;48.862;9.188;2023-07-31T12:53:05;23.50;99.90
9209;DHT22;4639;48.862;9.188;2023-07-31T12:55:30;23.50;99.90
9209;DHT22;4639;48.862;9.188;2023-07-31T12:57:56;23.60;99.90
9209;DHT22;4639;48.862;9.188;2023-07-31T13:00:22;23.70;99.90
9209;DHT22;4639;48.862;9.188;2023-07-31T13:02:48;23.50;99.90
9209;DHT22;4639;48.862;9.188;2023-07-31T13:05:14;23.40;99.90
9209;DHT22;4639;48.862;9.188;2023-07-31T13:07:40;23.40;99.90
9209;DHT22;4639;48.862;9.188;2023-07-31T13:10:06;23.40;99.90
9209;DHT22;4639;48.862;9.188;2023-07-31T13:12:32;23.30;99.90
9209;DHT22;4639;48.862;9.188;2023-07-31T13:14:58;23.30;99.90
9209;DHT22;4639;48.862;9.188;2023-07-31T13:17:23;23.30;99.90
9209;DHT22;4639;48.862;9.188;2023-07-31T13:19:49;23.30;99.90
9209;DHT22;4639;48.862;9.188;2023-07-31T13:22:15;23.50;99.90
9209;DHT22;4639;48.862;9.188;2023-07-31T13:24:40;23.10;99.90
9209;DHT22;4639;48.862;9.188;2023-07-31T13:27:06;23.10;99.90
9209;DHT22;4639;48.862;9.188;2023-07-31T13:29:31;23.40;99.90
9209;DHT22;4639;48.862;9.188;2023-07-31T13:31:57;23.00;99.90
9209;DHT22;4639;48.862;9.188;2023-07-31T13:34:23;22.90;99.90
9209;DHT22;4639;48.862;9.188;2023-07-31T13:36:49;23.20;99.90
9209;DHT22;4639;48.862;9.188;2023-07-31T13:39:14;23.30;99.90
9209;DHT22;4639;48.862;9.188;2023-07-31T13:41:40;23.30;99.90
9209;DHT22;4639;48.862;9.188;2023-07-31T13:44:05;23.40;99.90
9209;DHT22;4639;48.862;9.188;2023-07-31T13:46:31;23.70;99.90
9209;DHT22;4639;48.862;9.188;2023-07-31T13:49:00;23.90;99.90
9209;DHT22;4639;48.862;9.188;2023-07-31T13:51:27;24.00;99.90
9209;DHT22;4639;48.862;9.188;2023-07-31T13:53:53;23.70;99.90
9209;DHT22;4639;48.862;9.188;2023-07-31T13:56:18;24.00;99.90
9209;DHT22;4639;48.862;9.188;2023-07-31T13:58:44;23.90;99.90
9209;DHT22;4639;48.862;9.188;2023-07-31T14:01:10;24.00;99.90
9209;DHT22;4639;48.862;9.188;2023-07-31T14:03:35;24.20;99.90
9209;DHT22;4639;48.862;9.188;2023-07-31T14:06:01;24.20;99.90
9209;DHT22;4639;48.862;9.188;2023-07-31T14:08:26;24.20;99.90
9209;DHT22;4639;48.862;9.188;2023-07-31T14:10:52;24.30;99.90
9209;DHT22;4639;48.862;9.188;2023-07-31T14:13:18;23.80;99.90
9209;DHT22;4639;48.862;9.188;2023-07-31T14:15:43;23.70;99.90
9209;DHT22;4639;48.862;9.188;2023-07-31T14:18:09;23.70;99.90
9209;DHT22;4639;48.862;9.188;2023-07-31T14:20:35;24.00;99.90
9209;DHT22;4639;48.862;9.188;2023-07-31T14:23:02;23.80;99.90
9209;DHT22;4639;48.862;9.188;2023-07-31T14:25:27;24.00;99.90
9209;DHT22;4639;48.862;9.188;2023-07-31T14:27:53;24.40;99.90
9209;DHT22;4639;48.862;9.188;2023-07-31T14:30:19;24.50;99.90
9209;DHT22;4639;48.862;9.188;2023-07-31T14:32:44;24.50;99.90
9209;DHT22;4639;48.862;9.188;2023-07-31T14:35:10;24.60;99.90
9209;DHT22;4639;48.862;9.188;2023-07-31T14:37:44;24.40;99.90
9209;DHT22;4639;48.862;9.188;2023-07-31T14:40:11;24.50;99.90
9209;DHT22;4639;48.862;9.188;2023-07-31T14:42:39;24.70;99.90
9209;DHT22;4639;48.862;9.188;2023-07-31T14:45:05;24.60;99.90
9209;DHT22;4639;48.862;9.188;2023-07-31T14:47:31;24.60;99.90
9209;DHT22;4639;48.862;9.188;2023-07-31T14:49:58;24.60;99.90
9209;DHT22;4639;48.862;9.188;2023-07-31T14:52:24;24.50;99.90
9209;DHT22;4639;48.862;9.188;2023-07-31T14:54:49;24.60;99.90
9209;DHT22;4639;48.862;9.188;2023-07-31T14:57:15;24.60;99.90
9209;DHT22;4639;48.862;9.188;2023-07-31T14:59:40;24.50;99.90
9209;DHT22;4639;48.862;9.188;2023-07-31T15:02:08;24.50;99.90
9209;DHT22;4639;48.862;9.188;2023-07-31T15:04:34;24.40;99.90
9209;DHT22;4639;48.862;9.188;2023-07-31T15:07:00;24.30;99.90
9209;DHT22;4639;48.862;9.188;2023-07-31T15:09:25;24.50;99.90
9209;DHT22;4639;48.862;9.188;2023-07-31T15:11:51;24.70;99.90
9209;DHT22;4639;48.862;9.188;2023-07-31T15:14:16;25.10;99.90
9209;DHT22;4639;48.862;9.188;2023-07-31T15:16:42;25.30;99.90
9209;DHT22;4639;48.862;9.188;2023-07-31T15:19:08;25.30;99.90
9209;DHT22;4639;48.862;9.188;2023-07-31T15:21:33;25.50;99.90
9209;DHT22;4639;48.862;9.188;2023-07-31T15:23:59;25.70;99.90
9209;DHT22;4639;48.862;9.188;2023-07-31T15:26:24;25.70;99.90
9209;DHT22;4639;48.862;9.188;2023-07-31T15:29:00;25.70;99.90
9209;DHT22;4639;48.862;9.188;2023-07-31T15:31:26;25.50;99.90
9209;DHT22;4639;48.862;9.188;2023-07-31T15:33:52;25.60;99.90
9209;DHT22;4639;48.862;9.188;2023-07-31T15:36:17;25.70;99.90
9209;DHT22;4639;48.862;9.188;2023-07-31T15:38:43;25.60;99.90
9209;DHT22;4639;48.862;9.188;2023-07-31T15:41:09;25.40;99.90
9209;DHT22;4639;48.862;9.188;2023-07-31T15:43:34;25.30;99.90
9209;DHT22;4639;48.862;9.188;2023-07-31T15:46:00;25.10;99.90
9209;DHT22;4639;48.862;9.188;2023-07-31T15:48:25;24.90;99.90
9209;DHT22;4639;48.862;9.188;2023-07-31T15:50:51;24.80;99.90
9209;DHT22;4639;48.862;9.188;2023-07-31T15:53:16;24.90;99.90
9209;DHT22;4639;48.862;9.188;2023-07-31T15:55:42;24.80;99.90
9209;DHT22;4639;48.862;9.188;2023-07-31T15:58:07;24.70;99.90
9209;DHT22;4639;48.862;9.188;2023-07-31T16:00:33;24.70;99.90
9209;DHT22;4639;48.862;9.188;2023-07-31T16:02:59;24.60;99.90
9209;DHT22;4639;48.862;9.188;2023-07-31T16:05:24;24.50;99.90
9209;DHT22;4639;48.862;9.188;2023-07-31T16:07:50;24.70;99.90
9209;DHT22;4639;48.862;9.188;2023-07-31T16:10:15;24.80;99.90
9209;DHT22;4639;48.862;9.188;2023-07-31T16:12:41;24.90;99.90